sensor_id;sensor_type;location;lat;lon;timestamp;P1;durP1;ratioP1;P2;durP2;ratioP2
14975;SDS011;7584;60.468;25.126;2022-07-23T00:01:20;11.88;;;7.60;;
14975;SDS011;7584;60.468;25.126;2022-07-23T00:03:46;9.40;;;7.75;;
14975;SDS011;7584;60.468;25.126;2022-07-23T00:06:11;8.40;;;7.45;;
14975;SDS011;7584;60.468;25.126;2022-07-23T00:08:36;11.02;;;7.68;;
14975;SDS011;7584;60.468;25.126;2022-07-23T00:11:02;10.70;;;7.03;;
14975;SDS011;7584;60.468;25.126;2022-07-23T00:13:27;7.65;;;6.57;;
14975;SDS011;7584;60.468;25.126;2022-07-23T00:15:52;9.55;;;6.38;;
14975;SDS011;7584;60.468;25.126;2022-07-23T00:18:18;8.43;;;6.88;;
14975;SDS011;7584;60.468;25.126;2022-07-23T00:20:43;8.52;;;6.68;;
14975;SDS011;7584;60.468;25.126;2022-07-23T00:23:08;8.65;;;6.65;;
14975;SDS011;7584;60.468;25.126;2022-07-23T00:25:34;8.38;;;6.40;;
14975;SDS011;7584;60.468;25.126;2022-07-23T00:27:59;7.95;;;6.63;;
14975;SDS011;7584;60.468;25.126;2022-07-23T00:30:25;8.80;;;6.45;;
14975;SDS011;7584;60.468;25.126;2022-07-23T00:32:54;9.45;;;6.30;;
14975;SDS011;7584;60.468;25.126;2022-07-23T00:35:21;9.48;;;6.38;;
14975;SDS011;7584;60.468;25.126;2022-07-23T00:37:47;8.15;;;6.50;;
14975;SDS011;7584;60.468;25.126;2022-07-23T00:40:12;7.57;;;6.60;;
14975;SDS011;7584;60.468;25.126;2022-07-23T00:42:38;8.48;;;6.65;;
14975;SDS011;7584;60.468;25.126;2022-07-23T00:45:03;7.40;;;6.40;;
14975;SDS011;7584;60.468;25.126;2022-07-23T00:47:29;8.43;;;6.22;;
14975;SDS011;7584;60.468;25.126;2022-07-23T00:49:54;7.10;;;6.05;;
14975;SDS011;7584;60.468;25.126;2022-07-23T00:52:19;6.57;;;5.97;;
14975;SDS011;7584;60.468;25.126;2022-07-23T00:54:45;7.22;;;6.03;;
14975;SDS011;7584;60.468;25.126;2022-07-23T00:57:10;12.52;;;6.35;;
14975;SDS011;7584;60.468;25.126;2022-07-23T00:59:37;6.68;;;6.03;;
14975;SDS011;7584;60.468;25.126;2022-07-23T01:02:03;6.45;;;5.78;;
14975;SDS011;7584;60.468;25.126;2022-07-23T01:04:28;7.72;;;5.82;;
14975;SDS011;7584;60.468;25.126;2022-07-23T01:06:53;6.43;;;5.35;;
14975;SDS011;7584;60.468;25.126;2022-07-23T01:09:19;7.38;;;6.05;;
14975;SDS011;7584;60.468;25.126;2022-07-23T01:11:44;6.63;;;5.57;;
14975;SDS011;7584;60.468;25.126;2022-07-23T01:14:16;7.82;;;5.75;;
14975;SDS011;7584;60.468;25.126;2022-07-23T01:16:42;8.07;;;5.47;;
14975;SDS011;7584;60.468;25.126;2022-07-23T01:19:08;6.25;;;5.60;;
14975;SDS011;7584;60.468;25.126;2022-07-23T01:21:35;6.72;;;5.45;;
14975;SDS011;7584;60.468;25.126;2022-07-23T01:24:01;6.55;;;5.30;;
14975;SDS011;7584;60.468;25.126;2022-07-23T01:26:26;7.00;;;5.60;;
14975;SDS011;7584;60.468;25.126;2022-07-23T01:28:51;7.82;;;5.63;;
14975;SDS011;7584;60.468;25.126;2022-07-23T01:31:17;6.60;;;5.40;;
14975;SDS011;7584;60.468;25.126;2022-07-23T01:33:43;7.68;;;5.40;;
14975;SDS011;7584;60.468;25.126;2022-07-23T01:36:08;6.55;;;5.50;;
14975;SDS011;7584;60.468;25.126;2022-07-23T01:38:33;8.02;;;5.90;;
14975;SDS011;7584;60.468;25.126;2022-07-23T01:40:59;6.93;;;6.07;;
14975;SDS011;7584;60.468;25.126;2022-07-23T01:43:24;8.77;;;5.93;;
14975;SDS011;7584;60.468;25.126;2022-07-23T01:45:49;7.63;;;5.95;;
14975;SDS011;7584;60.468;25.126;2022-07-23T01:48:14;10.18;;;6.50;;
14975;SDS011;7584;60.468;25.126;2022-07-23T01:50:41;7.38;;;6.13;;
14975;SDS011;7584;60.468;25.126;2022-07-23T01:53:06;6.43;;;5.80;;
14975;SDS011;7584;60.468;25.126;2022-07-23T01:55:32;7.95;;;6.45;;
14975;SDS011;7584;60.468;25.126;2022-07-23T01:57:57;7.57;;;5.97;;
14975;SDS011;7584;60.468;25.126;2022-07-23T02:00:22;6.80;;;6.10;;
14975;SDS011;7584;60.468;25.126;2022-07-23T02:02:47;8.60;;;6.38;;
14975;SDS011;7584;60.468;25.126;2022-07-23T02:05:13;7.75;;;6.72;;
14975;SDS011;7584;60.468;25.126;2022-07-23T02:07:38;8.60;;;6.35;;
14975;SDS011;7584;60.468;25.126;2022-07-23T02:10:03;8.65;;;6.30;;
14975;SDS011;7584;60.468;25.126;2022-07-23T02:12:29;8.88;;;6.63;;
14975;SDS011;7584;60.468;25.126;2022-07-23T02:14:54;7.25;;;6.05;;
14975;SDS011;7584;60.468;25.126;2022-07-23T02:17:19;8.35;;;6.80;;
14975;SDS011;7584;60.468;25.126;2022-07-23T02:19:45;7.88;;;6.25;;
14975;SDS011;7584;60.468;25.126;2022-07-23T02:22:10;7.75;;;6.65;;
14975;SDS011;7584;60.468;25.126;2022-07-23T02:24:35;7.63;;;6.82;;
14975;SDS011;7584;60.468;25.126;2022-07-23T02:27:01;8.57;;;6.70;;
14975;SDS011;7584;60.468;25.126;2022-07-23T02:29:26;8.18;;;6.72;;
14975;SDS011;7584;60.468;25.126;2022-07-23T02:31:51;7.70;;;7.00;;
14975;SDS011;7584;60.468;25.126;2022-07-23T02:34:16;10.20;;;7.78;;
14975;SDS011;7584;60.468;25.126;2022-07-23T02:36:42;8.05;;;6.93;;
14975;SDS011;7584;60.468;25.126;2022-07-23T02:39:07;10.50;;;6.85;;
14975;SDS011;7584;60.468;25.126;2022-07-23T02:41:32;8.50;;;7.05;;
14975;SDS011;7584;60.468;25.126;2022-07-23T02:43:57;7.57;;;6.82;;
14975;SDS011;7584;60.468;25.126;2022-07-23T02:46:23;8.27;;;7.22;;
14975;SDS011;7584;60.468;25.126;2022-07-23T02:48:48;7.88;;;6.53;;
14975;SDS011;7584;60.468;25.126;2022-07-23T02:51:13;8.82;;;7.93;;
14975;SDS011;7584;60.468;25.126;2022-07-23T02:53:39;9.48;;;7.50;;
14975;SDS011;7584;60.468;25.126;2022-07-23T02:56:04;8.93;;;7.63;;
14975;SDS011;7584;60.468;25.126;2022-07-23T02:58:29;10.57;;;7.95;;
14975;SDS011;7584;60.468;25.126;2022-07-23T03:00:55;9.32;;;8.38;;
14975;SDS011;7584;60.468;25.126;2022-07-23T03:03:20;11.30;;;7.32;;
14975;SDS011;7584;60.468;25.126;2022-07-23T03:05:45;8.98;;;7.90;;
14975;SDS011;7584;60.468;25.126;2022-07-23T03:08:10;9.93;;;7.63;;
14975;SDS011;7584;60.468;25.126;2022-07-23T03:10:36;8.80;;;7.82;;
14975;SDS011;7584;60.468;25.126;2022-07-23T03:13:01;9.05;;;8.00;;
14975;SDS011;7584;60.468;25.126;2022-07-23T03:15:26;8.07;;;7.28;;
14975;SDS011;7584;60.468;25.126;2022-07-23T03:17:51;8.68;;;7.50;;
14975;SDS011;7584;60.468;25.126;2022-07-23T03:20:17;11.27;;;8.27;;
14975;SDS011;7584;60.468;25.126;2022-07-23T03:22:42;8.35;;;7.45;;
14975;SDS011;7584;60.468;25.126;2022-07-23T03:25:08;8.88;;;7.97;;
14975;SDS011;7584;60.468;25.126;2022-07-23T03:27:33;8.80;;;7.15;;
14975;SDS011;7584;60.468;25.126;2022-07-23T03:29:59;9.65;;;8.38;;
14975;SDS011;7584;60.468;25.126;2022-07-23T03:32:24;12.00;;;7.57;;
14975;SDS011;7584;60.468;25.126;2022-07-23T03:34:50;11.88;;;8.10;;
14975;SDS011;7584;60.468;25.126;2022-07-23T03:37:16;8.55;;;7.60;;
14975;SDS011;7584;60.468;25.126;2022-07-23T03:39:41;10.65;;;7.80;;
14975;SDS011;7584;60.468;25.126;2022-07-23T03:42:06;9.90;;;7.85;;
14975;SDS011;7584;60.468;25.126;2022-07-23T03:44:32;12.15;;;7.65;;
14975;SDS011;7584;60.468;25.126;2022-07-23T03:46:57;11.15;;;7.80;;
14975;SDS011;7584;60.468;25.126;2022-07-23T03:49:23;8.30;;;7.50;;
14975;SDS011;7584;60.468;25.126;2022-07-23T03:51:48;10.00;;;7.95;;
14975;SDS011;7584;60.468;25.126;2022-07-23T03:54:13;9.70;;;7.50;;
14975;SDS011;7584;60.468;25.126;2022-07-23T03:56:39;9.52;;;7.97;;
14975;SDS011;7584;60.468;25.126;2022-07-23T03:59:04;11.20;;;8.18;;
14975;SDS011;7584;60.468;25.126;2022-07-23T04:01:29;12.15;;;8.93;;
14975;SDS011;7584;60.468;25.126;2022-07-23T04:03:55;10.80;;;7.88;;
14975;SDS011;7584;60.468;25.126;2022-07-23T04:06:20;9.27;;;8.27;;
14975;SDS011;7584;60.468;25.126;2022-07-23T04:08:45;11.45;;;8.38;;
14975;SDS011;7584;60.468;25.126;2022-07-23T04:11:10;9.70;;;8.50;;
14975;SDS011;7584;60.468;25.126;2022-07-23T04:13:36;8.90;;;7.95;;
14975;SDS011;7584;60.468;25.126;2022-07-23T04:16:01;11.30;;;8.48;;
14975;SDS011;7584;60.468;25.126;2022-07-23T04:18:26;14.13;;;8.27;;
14975;SDS011;7584;60.468;25.126;2022-07-23T04:20:52;11.25;;;8.30;;
14975;SDS011;7584;60.468;25.126;2022-07-23T04:23:17;10.18;;;7.75;;
14975;SDS011;7584;60.468;25.126;2022-07-23T04:25:42;11.15;;;8.63;;
14975;SDS011;7584;60.468;25.126;2022-07-23T04:28:08;11.10;;;8.05;;
14975;SDS011;7584;60.468;25.126;2022-07-23T04:30:33;8.27;;;7.47;;
14975;SDS011;7584;60.468;25.126;2022-07-23T04:32:59;9.38;;;8.15;;
14975;SDS011;7584;60.468;25.126;2022-07-23T04:35:24;9.90;;;8.30;;
14975;SDS011;7584;60.468;25.126;2022-07-23T04:37:50;10.80;;;8.35;;
14975;SDS011;7584;60.468;25.126;2022-07-23T04:40:15;10.90;;;8.20;;
14975;SDS011;7584;60.468;25.126;2022-07-23T04:42:40;9.70;;;8.43;;
14975;SDS011;7584;60.468;25.126;2022-07-23T04:45:06;9.00;;;8.20;;
14975;SDS011;7584;60.468;25.126;2022-07-23T04:47:31;8.57;;;7.10;;
14975;SDS011;7584;60.468;25.126;2022-07-23T04:49:57;10.38;;;7.57;;
14975;SDS011;7584;60.468;25.126;2022-07-23T04:52:22;7.32;;;6.40;;
14975;SDS011;7584;60.468;25.126;2022-07-23T04:54:48;9.15;;;7.03;;
14975;SDS011;7584;60.468;25.126;2022-07-23T04:57:13;8.85;;;6.30;;
14975;SDS011;7584;60.468;25.126;2022-07-23T04:59:38;7.85;;;6.88;;
14975;SDS011;7584;60.468;25.126;2022-07-23T05:02:04;8.98;;;7.05;;
14975;SDS011;7584;60.468;25.126;2022-07-23T05:04:29;10.13;;;6.97;;
14975;SDS011;7584;60.468;25.126;2022-07-23T05:06:54;9.60;;;7.30;;
14975;SDS011;7584;60.468;25.126;2022-07-23T05:09:20;11.57;;;7.28;;
14975;SDS011;7584;60.468;25.126;2022-07-23T05:11:45;8.63;;;6.97;;
14975;SDS011;7584;60.468;25.126;2022-07-23T05:14:10;8.80;;;7.45;;
14975;SDS011;7584;60.468;25.126;2022-07-23T05:16:37;7.65;;;6.57;;
14975;SDS011;7584;60.468;25.126;2022-07-23T05:19:02;9.77;;;6.88;;
14975;SDS011;7584;60.468;25.126;2022-07-23T05:21:28;7.93;;;7.13;;
14975;SDS011;7584;60.468;25.126;2022-07-23T05:23:53;7.85;;;6.97;;
14975;SDS011;7584;60.468;25.126;2022-07-23T05:26:19;8.18;;;6.68;;
14975;SDS011;7584;60.468;25.126;2022-07-23T05:28:44;7.38;;;6.63;;
14975;SDS011;7584;60.468;25.126;2022-07-23T05:31:09;9.38;;;7.03;;
14975;SDS011;7584;60.468;25.126;2022-07-23T05:33:35;9.27;;;6.82;;
14975;SDS011;7584;60.468;25.126;2022-07-23T05:36:03;7.18;;;6.00;;
14975;SDS011;7584;60.468;25.126;2022-07-23T05:38:29;7.22;;;6.43;;
14975;SDS011;7584;60.468;25.126;2022-07-23T05:40:54;8.63;;;6.88;;
14975;SDS011;7584;60.468;25.126;2022-07-23T05:43:20;7.05;;;6.35;;
14975;SDS011;7584;60.468;25.126;2022-07-23T05:45:45;8.00;;;6.60;;
14975;SDS011;7584;60.468;25.126;2022-07-23T05:48:10;7.88;;;6.10;;
14975;SDS011;7584;60.468;25.126;2022-07-23T05:50:35;9.70;;;7.05;;
14975;SDS011;7584;60.468;25.126;2022-07-23T05:53:01;7.38;;;6.20;;
14975;SDS011;7584;60.468;25.126;2022-07-23T05:55:26;10.05;;;6.43;;
14975;SDS011;7584;60.468;25.126;2022-07-23T05:57:54;7.63;;;6.63;;
14975;SDS011;7584;60.468;25.126;2022-07-23T06:00:19;8.38;;;6.45;;
14975;SDS011;7584;60.468;25.126;2022-07-23T06:02:45;10.75;;;7.00;;
14975;SDS011;7584;60.468;25.126;2022-07-23T06:05:10;9.80;;;6.60;;
14975;SDS011;7584;60.468;25.126;2022-07-23T06:07:35;10.10;;;6.93;;
14975;SDS011;7584;60.468;25.126;2022-07-23T06:10:01;7.85;;;6.63;;
14975;SDS011;7584;60.468;25.126;2022-07-23T06:12:26;9.15;;;6.82;;
14975;SDS011;7584;60.468;25.126;2022-07-23T06:14:52;9.23;;;7.20;;
14975;SDS011;7584;60.468;25.126;2022-07-23T06:17:17;11.65;;;6.82;;
14975;SDS011;7584;60.468;25.126;2022-07-23T06:19:43;9.55;;;6.32;;
14975;SDS011;7584;60.468;25.126;2022-07-23T06:22:08;9.48;;;7.70;;
14975;SDS011;7584;60.468;25.126;2022-07-23T06:24:33;10.98;;;6.88;;
14975;SDS011;7584;60.468;25.126;2022-07-23T06:26:58;9.80;;;7.22;;
14975;SDS011;7584;60.468;25.126;2022-07-23T06:29:24;10.88;;;7.10;;
14975;SDS011;7584;60.468;25.126;2022-07-23T06:31:49;7.78;;;6.05;;
14975;SDS011;7584;60.468;25.126;2022-07-23T06:34:14;11.70;;;7.18;;
14975;SDS011;7584;60.468;25.126;2022-07-23T06:36:40;9.27;;;7.00;;
14975;SDS011;7584;60.468;25.126;2022-07-23T06:39:05;9.55;;;6.85;;
14975;SDS011;7584;60.468;25.126;2022-07-23T06:41:30;10.50;;;7.13;;
14975;SDS011;7584;60.468;25.126;2022-07-23T06:43:55;10.10;;;7.35;;
14975;SDS011;7584;60.468;25.126;2022-07-23T06:46:21;10.80;;;7.07;;
14975;SDS011;7584;60.468;25.126;2022-07-23T06:48:46;9.13;;;6.97;;
14975;SDS011;7584;60.468;25.126;2022-07-23T06:51:12;9.93;;;7.00;;
14975;SDS011;7584;60.468;25.126;2022-07-23T06:53:37;10.38;;;7.38;;
14975;SDS011;7584;60.468;25.126;2022-07-23T06:56:02;10.55;;;7.10;;
14975;SDS011;7584;60.468;25.126;2022-07-23T06:58:27;9.55;;;7.13;;
14975;SDS011;7584;60.468;25.126;2022-07-23T07:00:53;10.85;;;7.85;;
14975;SDS011;7584;60.468;25.126;2022-07-23T07:03:18;10.30;;;7.95;;
14975;SDS011;7584;60.468;25.126;2022-07-23T07:05:44;13.30;;;7.50;;
14975;SDS011;7584;60.468;25.126;2022-07-23T07:08:09;9.48;;;7.57;;
14975;SDS011;7584;60.468;25.126;2022-07-23T07:10:34;7.72;;;6.93;;
14975;SDS011;7584;60.468;25.126;2022-07-23T07:12:59;12.70;;;8.07;;
14975;SDS011;7584;60.468;25.126;2022-07-23T07:15:25;8.95;;;7.55;;
14975;SDS011;7584;60.468;25.126;2022-07-23T07:17:51;9.00;;;6.80;;
14975;SDS011;7584;60.468;25.126;2022-07-23T07:20:17;9.00;;;7.57;;
14975;SDS011;7584;60.468;25.126;2022-07-23T07:22:42;9.88;;;7.57;;
14975;SDS011;7584;60.468;25.126;2022-07-23T07:25:07;9.73;;;8.20;;
14975;SDS011;7584;60.468;25.126;2022-07-23T07:27:33;11.27;;;8.20;;
14975;SDS011;7584;60.468;25.126;2022-07-23T07:29:58;13.23;;;8.23;;
14975;SDS011;7584;60.468;25.126;2022-07-23T07:32:23;12.55;;;8.68;;
14975;SDS011;7584;60.468;25.126;2022-07-23T07:34:49;11.70;;;8.40;;
14975;SDS011;7584;60.468;25.126;2022-07-23T07:37:14;11.23;;;8.10;;
14975;SDS011;7584;60.468;25.126;2022-07-23T07:39:39;9.77;;;7.90;;
14975;SDS011;7584;60.468;25.126;2022-07-23T07:42:05;10.48;;;8.70;;
14975;SDS011;7584;60.468;25.126;2022-07-23T07:44:30;8.73;;;7.32;;
14975;SDS011;7584;60.468;25.126;2022-07-23T07:46:55;8.90;;;8.05;;
14975;SDS011;7584;60.468;25.126;2022-07-23T07:49:20;10.52;;;8.80;;
14975;SDS011;7584;60.468;25.126;2022-07-23T07:51:46;8.77;;;7.68;;
14975;SDS011;7584;60.468;25.126;2022-07-23T07:54:12;8.02;;;7.05;;
14975;SDS011;7584;60.468;25.126;2022-07-23T07:56:37;11.63;;;8.43;;
14975;SDS011;7584;60.468;25.126;2022-07-23T07:59:02;8.35;;;7.30;;
14975;SDS011;7584;60.468;25.126;2022-07-23T08:01:27;8.40;;;7.60;;
14975;SDS011;7584;60.468;25.126;2022-07-23T08:03:53;8.88;;;7.90;;
14975;SDS011;7584;60.468;25.126;2022-07-23T08:06:18;8.32;;;7.53;;
14975;SDS011;7584;60.468;25.126;2022-07-23T08:08:43;8.13;;;7.30;;
14975;SDS011;7584;60.468;25.126;2022-07-23T08:11:09;8.60;;;7.60;;
14975;SDS011;7584;60.468;25.126;2022-07-23T08:13:34;8.30;;;6.63;;
14975;SDS011;7584;60.468;25.126;2022-07-23T08:15:59;10.23;;;7.70;;
14975;SDS011;7584;60.468;25.126;2022-07-23T08:18:25;8.43;;;7.40;;
14975;SDS011;7584;60.468;25.126;2022-07-23T08:20:50;7.47;;;6.43;;
14975;SDS011;7584;60.468;25.126;2022-07-23T08:23:15;6.28;;;5.68;;
14975;SDS011;7584;60.468;25.126;2022-07-23T08:25:44;7.22;;;6.25;;
14975;SDS011;7584;60.468;25.126;2022-07-23T08:28:10;6.22;;;5.65;;
14975;SDS011;7584;60.468;25.126;2022-07-23T08:30:37;6.75;;;5.18;;
14975;SDS011;7584;60.468;25.126;2022-07-23T08:33:03;5.03;;;4.20;;
14975;SDS011;7584;60.468;25.126;2022-07-23T08:35:33;5.90;;;4.40;;
14975;SDS011;7584;60.468;25.126;2022-07-23T08:37:59;4.82;;;4.10;;
14975;SDS011;7584;60.468;25.126;2022-07-23T08:40:26;4.45;;;4.00;;
14975;SDS011;7584;60.468;25.126;2022-07-23T08:42:51;6.82;;;4.18;;
14975;SDS011;7584;60.468;25.126;2022-07-23T08:45:18;4.78;;;3.70;;
14975;SDS011;7584;60.468;25.126;2022-07-23T08:47:44;6.60;;;4.13;;
14975;SDS011;7584;60.468;25.126;2022-07-23T08:50:09;4.05;;;3.47;;
14975;SDS011;7584;60.468;25.126;2022-07-23T08:52:35;4.40;;;3.95;;
14975;SDS011;7584;60.468;25.126;2022-07-23T08:55:01;5.35;;;4.50;;
14975;SDS011;7584;60.468;25.126;2022-07-23T08:57:26;6.00;;;4.03;;
14975;SDS011;7584;60.468;25.126;2022-07-23T08:59:51;4.57;;;4.18;;
14975;SDS011;7584;60.468;25.126;2022-07-23T09:02:17;6.00;;;3.97;;
14975;SDS011;7584;60.468;25.126;2022-07-23T09:04:43;4.32;;;3.70;;
14975;SDS011;7584;60.468;25.126;2022-07-23T09:07:08;3.78;;;3.38;;
14975;SDS011;7584;60.468;25.126;2022-07-23T09:09:33;4.50;;;3.20;;
14975;SDS011;7584;60.468;25.126;2022-07-23T09:12:05;3.50;;;3.20;;
14975;SDS011;7584;60.468;25.126;2022-07-23T09:14:38;3.13;;;2.90;;
14975;SDS011;7584;60.468;25.126;2022-07-23T09:17:16;3.35;;;2.88;;
14975;SDS011;7584;60.468;25.126;2022-07-23T09:19:42;4.00;;;2.83;;
14975;SDS011;7584;60.468;25.126;2022-07-23T09:22:21;2.90;;;2.60;;
14975;SDS011;7584;60.468;25.126;2022-07-23T09:25:06;2.88;;;2.58;;
14975;SDS011;7584;60.468;25.126;2022-07-23T09:27:45;3.00;;;2.25;;
14975;SDS011;7584;60.468;25.126;2022-07-23T09:30:11;3.28;;;2.97;;
14975;SDS011;7584;60.468;25.126;2022-07-23T09:32:37;2.70;;;2.50;;
14975;SDS011;7584;60.468;25.126;2022-07-23T09:35:03;2.80;;;2.60;;
14975;SDS011;7584;60.468;25.126;2022-07-23T09:37:28;3.30;;;2.75;;
14975;SDS011;7584;60.468;25.126;2022-07-23T09:39:54;2.53;;;2.30;;
14975;SDS011;7584;60.468;25.126;2022-07-23T09:42:28;4.20;;;2.50;;
14975;SDS011;7584;60.468;25.126;2022-07-23T09:44:54;2.40;;;2.20;;
14975;SDS011;7584;60.468;25.126;2022-07-23T09:47:20;2.70;;;2.50;;
14975;SDS011;7584;60.468;25.126;2022-07-23T09:49:58;4.35;;;2.88;;
14975;SDS011;7584;60.468;25.126;2022-07-23T09:52:26;2.90;;;2.60;;
14975;SDS011;7584;60.468;25.126;2022-07-23T09:54:57;3.00;;;2.70;;
14975;SDS011;7584;60.468;25.126;2022-07-23T09:57:22;3.17;;;2.45;;
14975;SDS011;7584;60.468;25.126;2022-07-23T09:59:47;5.72;;;2.70;;
14975;SDS011;7584;60.468;25.126;2022-07-23T10:02:13;3.22;;;2.80;;
14975;SDS011;7584;60.468;25.126;2022-07-23T10:04:39;3.95;;;3.20;;
14975;SDS011;7584;60.468;25.126;2022-07-23T10:07:07;2.95;;;2.75;;
14975;SDS011;7584;60.468;25.126;2022-07-23T10:09:35;2.90;;;2.67;;
14975;SDS011;7584;60.468;25.126;2022-07-23T10:12:02;2.63;;;2.35;;
14975;SDS011;7584;60.468;25.126;2022-07-23T10:14:39;3.60;;;2.78;;
14975;SDS011;7584;60.468;25.126;2022-07-23T10:17:05;3.03;;;2.63;;
14975;SDS011;7584;60.468;25.126;2022-07-23T10:19:31;5.15;;;3.47;;
14975;SDS011;7584;60.468;25.126;2022-07-23T10:21:58;4.50;;;3.28;;
14975;SDS011;7584;60.468;25.126;2022-07-23T10:32:16;2.60;;;2.40;;
14975;SDS011;7584;60.468;25.126;2022-07-23T10:37:34;4.32;;;3.00;;
14975;SDS011;7584;60.468;25.126;2022-07-23T10:40:11;2.97;;;2.78;;
14975;SDS011;7584;60.468;25.126;2022-07-23T10:42:37;3.75;;;3.22;;
14975;SDS011;7584;60.468;25.126;2022-07-23T10:47:47;4.25;;;3.20;;
14975;SDS011;7584;60.468;25.126;2022-07-23T10:50:17;5.95;;;3.67;;
14975;SDS011;7584;60.468;25.126;2022-07-23T10:52:42;3.70;;;3.15;;
14975;SDS011;7584;60.468;25.126;2022-07-23T10:57:53;3.28;;;2.97;;
14975;SDS011;7584;60.468;25.126;2022-07-23T11:02:48;3.45;;;2.75;;
14975;SDS011;7584;60.468;25.126;2022-07-23T11:05:15;4.43;;;2.53;;
14975;SDS011;7584;60.468;25.126;2022-07-23T11:10:35;3.05;;;2.80;;
14975;SDS011;7584;60.468;25.126;2022-07-23T11:34:35;3.38;;;2.63;;
14975;SDS011;7584;60.468;25.126;2022-07-23T11:37:01;2.90;;;1.95;;
14975;SDS011;7584;60.468;25.126;2022-07-23T11:39:27;2.40;;;2.17;;
14975;SDS011;7584;60.468;25.126;2022-07-23T11:41:54;2.38;;;2.17;;
14975;SDS011;7584;60.468;25.126;2022-07-23T11:46:58;3.22;;;2.00;;
14975;SDS011;7584;60.468;25.126;2022-07-23T11:49:24;2.70;;;1.90;;
14975;SDS011;7584;60.468;25.126;2022-07-23T11:57:16;3.22;;;2.08;;
14975;SDS011;7584;60.468;25.126;2022-07-23T11:59:42;3.00;;;2.22;;
14975;SDS011;7584;60.468;25.126;2022-07-23T12:02:07;3.08;;;1.90;;
14975;SDS011;7584;60.468;25.126;2022-07-23T12:07:04;1.50;;;1.40;;
14975;SDS011;7584;60.468;25.126;2022-07-23T12:09:30;1.88;;;1.73;;
14975;SDS011;7584;60.468;25.126;2022-07-23T12:11:59;2.88;;;2.00;;
14975;SDS011;7584;60.468;25.126;2022-07-23T12:14:24;2.58;;;1.80;;
14975;SDS011;7584;60.468;25.126;2022-07-23T12:17:09;5.65;;;1.83;;
14975;SDS011;7584;60.468;25.126;2022-07-23T12:19:34;2.25;;;1.45;;
14975;SDS011;7584;60.468;25.126;2022-07-23T12:21:59;2.58;;;1.60;;
14975;SDS011;7584;60.468;25.126;2022-07-23T12:24:25;1.98;;;1.50;;
14975;SDS011;7584;60.468;25.126;2022-07-23T12:29:35;2.83;;;1.52;;
14975;SDS011;7584;60.468;25.126;2022-07-23T12:32:00;1.60;;;1.50;;
14975;SDS011;7584;60.468;25.126;2022-07-23T12:34:26;1.92;;;1.50;;
14975;SDS011;7584;60.468;25.126;2022-07-23T12:36:52;5.20;;;1.58;;
14975;SDS011;7584;60.468;25.126;2022-07-23T12:39:30;1.92;;;1.38;;
14975;SDS011;7584;60.468;25.126;2022-07-23T12:41:56;2.40;;;1.65;;
14975;SDS011;7584;60.468;25.126;2022-07-23T12:44:21;3.65;;;1.48;;
14975;SDS011;7584;60.468;25.126;2022-07-23T12:46:49;2.22;;;2.00;;
14975;SDS011;7584;60.468;25.126;2022-07-23T12:49:24;1.90;;;1.63;;
14975;SDS011;7584;60.468;25.126;2022-07-23T12:51:50;2.70;;;1.65;;
14975;SDS011;7584;60.468;25.126;2022-07-23T12:54:15;1.85;;;1.67;;
14975;SDS011;7584;60.468;25.126;2022-07-23T12:56:44;2.28;;;1.80;;
14975;SDS011;7584;60.468;25.126;2022-07-23T12:59:10;2.67;;;1.65;;
14975;SDS011;7584;60.468;25.126;2022-07-23T13:01:36;2.88;;;1.85;;
14975;SDS011;7584;60.468;25.126;2022-07-23T13:04:09;3.80;;;2.05;;
14975;SDS011;7584;60.468;25.126;2022-07-23T13:06:36;3.80;;;2.03;;
14975;SDS011;7584;60.468;25.126;2022-07-23T13:09:02;4.05;;;2.10;;
14975;SDS011;7584;60.468;25.126;2022-07-23T13:11:27;2.58;;;1.90;;
14975;SDS011;7584;60.468;25.126;2022-07-23T13:13:53;4.57;;;2.28;;
14975;SDS011;7584;60.468;25.126;2022-07-23T13:16:18;5.43;;;2.00;;
14975;SDS011;7584;60.468;25.126;2022-07-23T13:18:44;4.75;;;2.20;;
14975;SDS011;7584;60.468;25.126;2022-07-23T13:21:09;2.75;;;1.98;;
14975;SDS011;7584;60.468;25.126;2022-07-23T13:23:34;4.03;;;2.22;;
14975;SDS011;7584;60.468;25.126;2022-07-23T13:26:00;3.55;;;2.30;;
14975;SDS011;7584;60.468;25.126;2022-07-23T13:28:25;4.00;;;2.28;;
14975;SDS011;7584;60.468;25.126;2022-07-23T13:30:51;3.80;;;2.53;;
14975;SDS011;7584;60.468;25.126;2022-07-23T13:33:17;3.05;;;2.05;;
14975;SDS011;7584;60.468;25.126;2022-07-23T13:35:43;4.32;;;2.63;;
14975;SDS011;7584;60.468;25.126;2022-07-23T13:38:08;3.35;;;2.70;;
14975;SDS011;7584;60.468;25.126;2022-07-23T13:40:37;4.53;;;2.67;;
14975;SDS011;7584;60.468;25.126;2022-07-23T13:43:07;4.53;;;2.58;;
14975;SDS011;7584;60.468;25.126;2022-07-23T13:45:33;5.38;;;2.65;;
14975;SDS011;7584;60.468;25.126;2022-07-23T13:47:58;5.10;;;2.72;;
14975;SDS011;7584;60.468;25.126;2022-07-23T13:50:24;2.53;;;2.15;;
14975;SDS011;7584;60.468;25.126;2022-07-23T13:52:49;5.97;;;2.47;;
14975;SDS011;7584;60.468;25.126;2022-07-23T13:55:15;4.68;;;2.50;;
14975;SDS011;7584;60.468;25.126;2022-07-23T13:57:40;4.53;;;2.58;;
14975;SDS011;7584;60.468;25.126;2022-07-23T14:00:05;4.65;;;2.80;;
14975;SDS011;7584;60.468;25.126;2022-07-23T14:02:32;5.10;;;2.80;;
14975;SDS011;7584;60.468;25.126;2022-07-23T14:04:57;6.57;;;2.50;;
14975;SDS011;7584;60.468;25.126;2022-07-23T14:07:23;4.63;;;2.83;;
14975;SDS011;7584;60.468;25.126;2022-07-23T14:09:48;6.15;;;2.80;;
14975;SDS011;7584;60.468;25.126;2022-07-23T14:12:14;4.45;;;2.83;;
14975;SDS011;7584;60.468;25.126;2022-07-23T14:14:39;4.53;;;3.00;;
14975;SDS011;7584;60.468;25.126;2022-07-23T14:17:04;3.88;;;2.72;;
14975;SDS011;7584;60.468;25.126;2022-07-23T14:19:30;6.85;;;3.33;;
14975;SDS011;7584;60.468;25.126;2022-07-23T14:21:55;6.43;;;2.95;;
14975;SDS011;7584;60.468;25.126;2022-07-23T14:24:20;4.60;;;3.10;;
14975;SDS011;7584;60.468;25.126;2022-07-23T14:26:46;4.43;;;2.90;;
14975;SDS011;7584;60.468;25.126;2022-07-23T14:29:11;3.78;;;2.75;;
14975;SDS011;7584;60.468;25.126;2022-07-23T14:31:36;4.85;;;3.42;;
14975;SDS011;7584;60.468;25.126;2022-07-23T14:34:02;4.53;;;3.15;;
14975;SDS011;7584;60.468;25.126;2022-07-23T14:36:27;6.57;;;2.90;;
14975;SDS011;7584;60.468;25.126;2022-07-23T14:38:52;5.07;;;3.30;;
14975;SDS011;7584;60.468;25.126;2022-07-23T14:41:18;5.68;;;2.67;;
14975;SDS011;7584;60.468;25.126;2022-07-23T14:43:43;6.05;;;3.05;;
14975;SDS011;7584;60.468;25.126;2022-07-23T14:46:09;3.88;;;2.70;;
14975;SDS011;7584;60.468;25.126;2022-07-23T14:48:36;5.50;;;3.08;;
14975;SDS011;7584;60.468;25.126;2022-07-23T14:51:01;4.70;;;2.80;;
14975;SDS011;7584;60.468;25.126;2022-07-23T14:53:26;5.32;;;2.85;;
14975;SDS011;7584;60.468;25.126;2022-07-23T14:55:51;5.43;;;2.92;;
14975;SDS011;7584;60.468;25.126;2022-07-23T14:58:17;4.50;;;3.17;;
14975;SDS011;7584;60.468;25.126;2022-07-23T15:00:42;4.63;;;2.95;;
14975;SDS011;7584;60.468;25.126;2022-07-23T15:03:08;3.92;;;2.78;;
14975;SDS011;7584;60.468;25.126;2022-07-23T15:05:33;3.58;;;3.05;;
14975;SDS011;7584;60.468;25.126;2022-07-23T15:07:58;4.18;;;2.78;;
14975;SDS011;7584;60.468;25.126;2022-07-23T15:10:24;4.15;;;3.00;;
14975;SDS011;7584;60.468;25.126;2022-07-23T15:12:49;3.60;;;3.30;;
14975;SDS011;7584;60.468;25.126;2022-07-23T15:15:14;3.95;;;3.10;;
14975;SDS011;7584;60.468;25.126;2022-07-23T15:17:40;3.75;;;3.10;;
14975;SDS011;7584;60.468;25.126;2022-07-23T15:20:05;5.85;;;3.70;;
14975;SDS011;7584;60.468;25.126;2022-07-23T15:22:31;4.60;;;3.45;;
14975;SDS011;7584;60.468;25.126;2022-07-23T15:24:56;3.78;;;3.30;;
14975;SDS011;7584;60.468;25.126;2022-07-23T15:27:22;6.35;;;3.35;;
14975;SDS011;7584;60.468;25.126;2022-07-23T15:29:47;4.88;;;3.90;;
14975;SDS011;7584;60.468;25.126;2022-07-23T15:32:12;4.85;;;3.53;;
14975;SDS011;7584;60.468;25.126;2022-07-23T15:34:38;5.43;;;3.90;;